sensor_id;sensor_type;location;lat;lon;timestamp;pressure;altitude;pressure_sealevel;temperature;humidity
5913;BME280;2982;42.684;23.356;2023-03-02T00:02:02;95246.59;;;5.76;100.00
5913;BME280;2982;42.684;23.356;2023-03-02T00:04:49;95240.84;;;5.72;100.00
5913;BME280;2982;42.684;23.356;2023-03-02T00:07:19;95231.84;;;5.64;100.00
5913;BME280;2982;42.684;23.356;2023-03-02T00:09:46;95237.88;;;5.58;100.00
5913;BME280;2982;42.684;23.356;2023-03-02T00:12:11;95255.50;;;5.60;100.00
5913;BME280;2982;42.684;23.356;2023-03-02T00:14:37;95252.28;;;5.55;100.00
5913;BME280;2982;42.684;23.356;2023-03-02T00:17:03;95238.88;;;5.53;100.00
5913;BME280;2982;42.684;23.356;2023-03-02T00:19:29;95240.59;;;5.51;100.00
5913;BME280;2982;42.684;23.356;2023-03-02T00:21:54;95237.31;;;5.49;100.00
5913;BME280;2982;42.684;23.356;2023-03-02T00:24:20;95208.59;;;5.25;100.00
5913;BME280;2982;42.684;23.356;2023-03-02T00:26:45;95223.75;;;5.23;100.00
5913;BME280;2982;42.684;23.356;2023-03-02T00:29:10;95221.28;;;5.22;100.00
5913;BME280;2982;42.684;23.356;2023-03-02T00:31:36;95231.53;;;5.14;100.00
5913;BME280;2982;42.684;23.356;2023-03-02T00:34:02;95228.41;;;5.06;100.00
5913;BME280;2982;42.684;23.356;2023-03-02T00:36:27;95206.28;;;4.86;100.00
5913;BME280;2982;42.684;23.356;2023-03-02T00:38:52;95213.66;;;4.94;100.00
5913;BME280;2982;42.684;23.356;2023-03-02T00:41:18;95209.34;;;4.98;100.00
5913;BME280;2982;42.684;23.356;2023-03-02T00:43:44;95200.16;;;4.95;100.00
5913;BME280;2982;42.684;23.356;2023-03-02T00:46:15;95205.28;;;4.94;100.00
5913;BME280;2982;42.684;23.356;2023-03-02T00:48:41;95205.28;;;4.94;100.00
5913;BME280;2982;42.684;23.356;2023-03-02T00:51:07;95198.91;;;4.80;100.00
5913;BME280;2982;42.684;23.356;2023-03-02T00:53:33;95204.56;;;4.88;100.00
5913;BME280;2982;42.684;23.356;2023-03-02T00:55:58;95206.41;;;4.82;100.00
5913;BME280;2982;42.684;23.356;2023-03-02T00:58:28;95199.78;;;4.78;100.00
5913;BME280;2982;42.684;23.356;2023-03-02T01:00:53;95197.13;;;4.84;100.00
5913;BME280;2982;42.684;23.356;2023-03-02T01:03:18;95184.72;;;4.76;100.00
5913;BME280;2982;42.684;23.356;2023-03-02T01:05:44;95182.28;;;4.75;100.00
5913;BME280;2982;42.684;23.356;2023-03-02T01:08:10;95192.28;;;4.76;100.00
5913;BME280;2982;42.684;23.356;2023-03-02T01:10:35;95184.66;;;4.79;100.00
5913;BME280;2982;42.684;23.356;2023-03-02T01:13:01;95177.97;;;4.78;100.00
5913;BME280;2982;42.684;23.356;2023-03-02T01:15:26;95167.91;;;4.78;100.00
5913;BME280;2982;42.684;23.356;2023-03-02T01:17:51;95171.91;;;4.85;100.00
5913;BME280;2982;42.684;23.356;2023-03-02T01:20:17;95168.59;;;4.85;100.00
5913;BME280;2982;42.684;23.356;2023-03-02T01:22:43;95152.94;;;4.74;100.00
5913;BME280;2982;42.684;23.356;2023-03-02T01:25:09;95184.38;;;4.90;100.00
5913;BME280;2982;42.684;23.356;2023-03-02T01:27:34;95159.38;;;4.84;100.00
5913;BME280;2982;42.684;23.356;2023-03-02T01:30:00;95178.22;;;5.00;100.00
5913;BME280;2982;42.684;23.356;2023-03-02T01:32:25;95185.72;;;5.03;100.00
5913;BME280;2982;42.684;23.356;2023-03-02T01:34:50;95172.44;;;4.97;100.00
5913;BME280;2982;42.684;23.356;2023-03-02T01:37:16;95180.81;;;4.99;100.00
5913;BME280;2982;42.684;23.356;2023-03-02T01:39:41;95171.84;;;4.88;100.00
5913;BME280;2982;42.684;23.356;2023-03-02T01:42:06;95169.84;;;5.00;100.00
5913;BME280;2982;42.684;23.356;2023-03-02T01:44:33;95179.13;;;4.99;100.00
5913;BME280;2982;42.684;23.356;2023-03-02T01:46:59;95162.38;;;4.97;100.00
5913;BME280;2982;42.684;23.356;2023-03-02T01:49:24;95165.47;;;5.06;100.00
5913;BME280;2982;42.684;23.356;2023-03-02T01:51:50;95150.41;;;5.05;100.00
5913;BME280;2982;42.684;23.356;2023-03-02T01:54:18;95155.56;;;5.00;100.00
5913;BME280;2982;42.684;23.356;2023-03-02T01:56:45;95158.78;;;5.05;100.00
5913;BME280;2982;42.684;23.356;2023-03-02T01:59:13;95154.44;;;5.10;100.00
5913;BME280;2982;42.684;23.356;2023-03-02T02:01:44;95159.34;;;5.15;100.00
5913;BME280;2982;42.684;23.356;2023-03-02T02:04:11;95146.38;;;4.99;100.00
5913;BME280;2982;42.684;23.356;2023-03-02T02:06:40;95162.28;;;5.00;100.00
5913;BME280;2982;42.684;23.356;2023-03-02T02:09:09;95131.69;;;4.84;100.00
5913;BME280;2982;42.684;23.356;2023-03-02T02:11:37;95150.75;;;4.93;100.00
5913;BME280;2982;42.684;23.356;2023-03-02T02:14:02;95151.66;;;4.90;100.00
5913;BME280;2982;42.684;23.356;2023-03-02T02:16:30;95156.16;;;4.79;100.00
5913;BME280;2982;42.684;23.356;2023-03-02T02:18:56;95066.13;;;4.28;100.00
5913;BME280;2982;42.684;23.356;2023-03-02T02:21:23;95129.72;;;4.64;100.00
5913;BME280;2982;42.684;23.356;2023-03-02T02:24:08;95167.75;;;4.84;100.00
5913;BME280;2982;42.684;23.356;2023-03-02T02:26:44;95137.94;;;4.71;100.00
5913;BME280;2982;42.684;23.356;2023-03-02T02:29:13;95160.03;;;4.91;100.00
5913;BME280;2982;42.684;23.356;2023-03-02T02:32:28;95149.25;;;4.85;100.00
5913;BME280;2982;42.684;23.356;2023-03-02T02:34:31;95132.44;;;4.57;100.00
5913;BME280;2982;42.684;23.356;2023-03-02T02:37:04;95154.75;;;4.69;100.00
5913;BME280;2982;42.684;23.356;2023-03-02T02:39:35;95135.56;;;4.65;100.00
5913;BME280;2982;42.684;23.356;2023-03-02T02:42:06;95154.59;;;4.75;100.00
5913;BME280;2982;42.684;23.356;2023-03-02T02:44:34;95156.28;;;4.74;100.00
5913;BME280;2982;42.684;23.356;2023-03-02T02:46:59;95148.78;;;4.71;100.00
5913;BME280;2982;42.684;23.356;2023-03-02T02:49:29;95153.56;;;4.82;100.00
5913;BME280;2982;42.684;23.356;2023-03-02T02:51:55;95149.31;;;4.84;100.00
5913;BME280;2982;42.684;23.356;2023-03-02T02:54:21;95152.59;;;4.86;100.00
5913;BME280;2982;42.684;23.356;2023-03-02T02:56:48;95159.06;;;4.95;100.00
5913;BME280;2982;42.684;23.356;2023-03-02T02:59:28;95159.66;;;5.04;100.00
5913;BME280;2982;42.684;23.356;2023-03-02T03:01:55;95143.69;;;5.05;100.00
5913;BME280;2982;42.684;23.356;2023-03-02T03:04:23;95141.34;;;4.99;100.00
5913;BME280;2982;42.684;23.356;2023-03-02T03:06:57;95146.59;;;4.90;100.00
5913;BME280;2982;42.684;23.356;2023-03-02T03:09:23;95144.97;;;4.89;100.00
5913;BME280;2982;42.684;23.356;2023-03-02T03:11:55;95135.50;;;4.99;100.00
5913;BME280;2982;42.684;23.356;2023-03-02T03:14:26;95139.06;;;4.90;100.00
5913;BME280;2982;42.684;23.356;2023-03-02T03:16:52;95133.91;;;4.95;100.00
5913;BME280;2982;42.684;23.356;2023-03-02T03:19:30;95139.69;;;4.98;100.00
5913;BME280;2982;42.684;23.356;2023-03-02T03:21:58;95140.41;;;5.03;100.00
5913;BME280;2982;42.684;23.356;2023-03-02T03:24:25;95129.75;;;4.94;100.00
5913;BME280;2982;42.684;23.356;2023-03-02T03:26:51;95137.25;;;4.95;100.00
5913;BME280;2982;42.684;23.356;2023-03-02T03:29:17;95145.50;;;5.00;100.00
5913;BME280;2982;42.684;23.356;2023-03-02T03:31:43;95145.34;;;5.06;100.00
5913;BME280;2982;42.684;23.356;2023-03-02T03:34:09;95138.56;;;5.08;100.00
5913;BME280;2982;42.684;23.356;2023-03-02T03:36:35;95144.38;;;5.10;100.00
5913;BME280;2982;42.684;23.356;2023-03-02T03:39:02;95156.31;;;5.04;100.00
5913;BME280;2982;42.684;23.356;2023-03-02T03:41:27;95140.66;;;4.94;100.00
5913;BME280;2982;42.684;23.356;2023-03-02T03:43:53;95150.91;;;4.86;100.00
5913;BME280;2982;42.684;23.356;2023-03-02T03:46:18;95148.38;;;4.88;100.00
5913;BME280;2982;42.684;23.356;2023-03-02T03:48:44;95146.66;;;4.88;100.00
5913;BME280;2982;42.684;23.356;2023-03-02T03:51:10;95140.78;;;4.90;100.00
5913;BME280;2982;42.684;23.356;2023-03-02T03:53:35;95142.47;;;4.89;100.00
5913;BME280;2982;42.684;23.356;2023-03-02T03:56:00;95150.97;;;4.85;100.00
5913;BME280;2982;42.684;23.356;2023-03-02T03:58:26;95146.00;;;4.82;100.00
5913;BME280;2982;42.684;23.356;2023-03-02T04:00:52;95138.53;;;4.79;100.00
5913;BME280;2982;42.684;23.356;2023-03-02T04:03:18;95148.63;;;4.77;100.00
5913;BME280;2982;42.684;23.356;2023-03-02T04:05:43;95117.09;;;4.66;100.00
5913;BME280;2982;42.684;23.356;2023-03-02T04:08:09;95138.41;;;4.83;100.00
5913;BME280;2982;42.684;23.356;2023-03-02T04:10:34;95144.41;;;4.79;100.00
5913;BME280;2982;42.684;23.356;2023-03-02T04:13:00;95140.22;;;4.78;100.00
5913;BME280;2982;42.684;23.356;2023-03-02T04:15:25;95129.63;;;4.67;100.00
5913;BME280;2982;42.684;23.356;2023-03-02T04:17:51;95142.84;;;4.75;100.00
5913;BME280;2982;42.684;23.356;2023-03-02T04:20:18;95141.91;;;4.78;100.00
5913;BME280;2982;42.684;23.356;2023-03-02T04:22:45;95133.75;;;4.70;100.00
5913;BME280;2982;42.684;23.356;2023-03-02T04:25:12;95139.50;;;4.75;100.00
5913;BME280;2982;42.684;23.356;2023-03-02T04:27:38;95138.06;;;4.66;100.00
5913;BME280;2982;42.684;23.356;2023-03-02T04:30:05;95137.94;;;4.71;100.00
5913;BME280;2982;42.684;23.356;2023-03-02T04:32:30;95127.19;;;4.64;100.00
5913;BME280;2982;42.684;23.356;2023-03-02T04:34:56;95115.00;;;4.51;100.00
5913;BME280;2982;42.684;23.356;2023-03-02T04:37:21;95118.34;;;4.51;100.00
5913;BME280;2982;42.684;23.356;2023-03-02T04:39:46;95113.34;;;4.48;100.00
5913;BME280;2982;42.684;23.356;2023-03-02T04:42:11;95133.47;;;4.48;100.00
5913;BME280;2982;42.684;23.356;2023-03-02T04:44:37;95142.56;;;4.54;100.00
5913;BME280;2982;42.684;23.356;2023-03-02T04:47:02;95147.44;;;4.60;100.00
5913;BME280;2982;42.684;23.356;2023-03-02T04:49:27;95146.59;;;4.61;100.00
5913;BME280;2982;42.684;23.356;2023-03-02T04:51:52;95144.97;;;4.58;100.00
5913;BME280;2982;42.684;23.356;2023-03-02T04:54:24;95153.41;;;4.57;100.00
5913;BME280;2982;42.684;23.356;2023-03-02T04:56:50;95150.91;;;4.56;100.00
5913;BME280;2982;42.684;23.356;2023-03-02T04:59:17;95143.38;;;4.56;100.00
5913;BME280;2982;42.684;23.356;2023-03-02T05:01:46;95146.53;;;4.62;100.00
5913;BME280;2982;42.684;23.356;2023-03-02T05:04:11;95141.38;;;4.67;100.00
5913;BME280;2982;42.684;23.356;2023-03-02T05:06:37;95152.81;;;4.78;100.00
5913;BME280;2982;42.684;23.356;2023-03-02T05:09:02;95152.84;;;4.77;100.00
5913;BME280;2982;42.684;23.356;2023-03-02T05:11:28;95150.50;;;4.71;100.00
5913;BME280;2982;42.684;23.356;2023-03-02T05:13:57;95130.00;;;4.54;100.00
5913;BME280;2982;42.684;23.356;2023-03-02T05:16:23;95153.31;;;4.60;100.00
5913;BME280;2982;42.684;23.356;2023-03-02T05:18:49;95154.88;;;4.64;100.00
5913;BME280;2982;42.684;23.356;2023-03-02T05:21:15;95154.88;;;4.64;100.00
5913;BME280;2982;42.684;23.356;2023-03-02T05:23:41;95164.69;;;4.73;100.00
5913;BME280;2982;42.684;23.356;2023-03-02T05:26:07;95161.22;;;4.77;100.00
5913;BME280;2982;42.684;23.356;2023-03-02T05:28:33;95158.94;;;4.68;100.00
5913;BME280;2982;42.684;23.356;2023-03-02T05:30:58;95146.41;;;4.34;100.00
5913;BME280;2982;42.684;23.356;2023-03-02T05:33:24;95160.22;;;4.84;100.00
5913;BME280;2982;42.684;23.356;2023-03-02T05:35:49;95161.84;;;4.85;100.00
5913;BME280;2982;42.684;23.356;2023-03-02T05:38:15;95171.88;;;4.87;100.00
5913;BME280;2982;42.684;23.356;2023-03-02T05:40:40;95147.06;;;4.73;100.00
5913;BME280;2982;42.684;23.356;2023-03-02T05:43:06;95169.84;;;5.00;100.00
5913;BME280;2982;42.684;23.356;2023-03-02T05:45:36;95178.59;;;5.17;100.00
5913;BME280;2982;42.684;23.356;2023-03-02T05:48:03;95169.53;;;5.12;100.00
5913;BME280;2982;42.684;23.356;2023-03-02T05:50:28;95176.69;;;5.25;100.00
5913;BME280;2982;42.684;23.356;2023-03-02T05:52:53;95158.53;;;5.14;100.00
5913;BME280;2982;42.684;23.356;2023-03-02T05:55:19;95177.94;;;5.40;100.00
5913;BME280;2982;42.684;23.356;2023-03-02T05:57:45;95143.81;;;5.30;100.00
5913;BME280;2982;42.684;23.356;2023-03-02T06:00:12;95170.88;;;5.51;100.00
5913;BME280;2982;42.684;23.356;2023-03-02T06:02:38;95156.72;;;5.47;100.00
5913;BME280;2982;42.684;23.356;2023-03-02T06:05:05;95167.28;;;5.60;100.00
5913;BME280;2982;42.684;23.356;2023-03-02T06:07:31;95164.16;;;5.52;100.00
5913;BME280;2982;42.684;23.356;2023-03-02T06:09:56;95178.81;;;5.67;100.00
5913;BME280;2982;42.684;23.356;2023-03-02T06:12:21;95162.84;;;5.40;100.00
5913;BME280;2982;42.684;23.356;2023-03-02T06:14:47;95187.53;;;5.57;100.00
5913;BME280;2982;42.684;23.356;2023-03-02T06:17:12;95182.75;;;5.48;100.00
5913;BME280;2982;42.684;23.356;2023-03-02T06:19:37;95186.91;;;5.50;100.00
5913;BME280;2982;42.684;23.356;2023-03-02T06:22:03;95195.25;;;5.51;100.00
5913;BME280;2982;42.684;23.356;2023-03-02T06:24:28;95203.44;;;5.59;100.00
5913;BME280;2982;42.684;23.356;2023-03-02T06:26:53;95189.47;;;5.47;100.00
5913;BME280;2982;42.684;23.356;2023-03-02T06:29:20;95168.69;;;5.41;100.00
5913;BME280;2982;42.684;23.356;2023-03-02T06:31:46;95190.13;;;5.54;100.00
5913;BME280;2982;42.684;23.356;2023-03-02T06:34:11;95199.03;;;5.65;100.00
5913;BME280;2982;42.684;23.356;2023-03-02T06:36:37;95199.56;;;5.75;100.00
5913;BME280;2982;42.684;23.356;2023-03-02T06:39:02;95199.69;;;5.72;100.00
5913;BME280;2982;42.684;23.356;2023-03-02T06:41:27;95203.38;;;5.90;100.00
5913;BME280;2982;42.684;23.356;2023-03-02T06:43:53;95203.47;;;5.87;100.00
5913;BME280;2982;42.684;23.356;2023-03-02T06:46:18;95188.38;;;5.84;100.00
5913;BME280;2982;42.684;23.356;2023-03-02T06:48:43;95200.50;;;6.02;100.00
5913;BME280;2982;42.684;23.356;2023-03-02T06:51:08;95208.63;;;6.10;100.00
5913;BME280;2982;42.684;23.356;2023-03-02T06:53:34;95195.91;;;6.13;100.00
5913;BME280;2982;42.684;23.356;2023-03-02T06:55:59;95207.94;;;6.31;100.00
5913;BME280;2982;42.684;23.356;2023-03-02T06:58:24;95196.88;;;6.35;100.00
5913;BME280;2982;42.684;23.356;2023-03-02T07:00:49;95159.47;;;5.97;100.00
5913;BME280;2982;42.684;23.356;2023-03-02T07:03:15;95204.72;;;6.28;100.00
5913;BME280;2982;42.684;23.356;2023-03-02T07:05:40;95205.16;;;6.14;100.00
5913;BME280;2982;42.684;23.356;2023-03-02T07:08:05;95169.41;;;6.01;100.00
5913;BME280;2982;42.684;23.356;2023-03-02T07:10:31;95196.34;;;6.26;100.00
5913;BME280;2982;42.684;23.356;2023-03-02T07:12:56;95204.56;;;6.32;100.00
5913;BME280;2982;42.684;23.356;2023-03-02T07:15:21;95192.97;;;6.27;100.00
5913;BME280;2982;42.684;23.356;2023-03-02T07:17:46;95199.22;;;6.15;100.00
5913;BME280;2982;42.684;23.356;2023-03-02T07:20:15;95210.16;;;5.88;100.00
5913;BME280;2982;42.684;23.356;2023-03-02T07:22:42;95209.47;;;5.81;100.00
5913;BME280;2982;42.684;23.356;2023-03-02T07:25:09;95196.75;;;5.87;100.00
5913;BME280;2982;42.684;23.356;2023-03-02T07:27:34;95206.81;;;5.86;100.00
5913;BME280;2982;42.684;23.356;2023-03-02T07:30:00;95195.91;;;5.87;100.00
5913;BME280;2982;42.684;23.356;2023-03-02T07:32:25;95191.34;;;5.98;100.00
5913;BME280;2982;42.684;23.356;2023-03-02T07:34:51;95207.09;;;6.06;100.00
5913;BME280;2982;42.684;23.356;2023-03-02T07:37:16;95184.47;;;6.03;100.00
5913;BME280;2982;42.684;23.356;2023-03-02T07:39:41;95205.56;;;6.27;100.00
5913;BME280;2982;42.684;23.356;2023-03-02T07:42:06;95208.47;;;6.41;100.00
5913;BME280;2982;42.684;23.356;2023-03-02T07:44:32;95212.91;;;6.34;100.00
5913;BME280;2982;42.684;23.356;2023-03-02T07:46:57;95130.13;;;5.94;100.00
5913;BME280;2982;42.684;23.356;2023-03-02T07:49:22;95205.88;;;6.44;100.00
5913;BME280;2982;42.684;23.356;2023-03-02T07:51:48;95194.31;;;6.37;100.00
5913;BME280;2982;42.684;23.356;2023-03-02T07:54:13;95203.59;;;6.36;100.00
5913;BME280;2982;42.684;23.356;2023-03-02T07:56:38;95213.56;;;6.39;100.00
5913;BME280;2982;42.684;23.356;2023-03-02T07:59:03;95176.53;;;6.15;100.00
5913;BME280;2982;42.684;23.356;2023-03-02T08:01:29;95183.09;;;5.93;100.00
5913;BME280;2982;42.684;23.356;2023-03-02T08:03:54;95180.97;;;6.07;100.00
5913;BME280;2982;42.684;23.356;2023-03-02T08:06:19;95186.00;;;6.07;100.00
5913;BME280;2982;42.684;23.356;2023-03-02T08:08:45;95189.47;;;6.04;100.00
5913;BME280;2982;42.684;23.356;2023-03-02T08:11:14;95195.34;;;6.05;100.00
5913;BME280;2982;42.684;23.356;2023-03-02T08:13:40;95197.72;;;6.09;100.00
5913;BME280;2982;42.684;23.356;2023-03-02T08:16:07;95184.00;;;6.18;100.00
5913;BME280;2982;42.684;23.356;2023-03-02T08:18:33;95188.41;;;6.38;100.00
5913;BME280;2982;42.684;23.356;2023-03-02T08:20:59;95188.97;;;6.46;100.00
5913;BME280;2982;42.684;23.356;2023-03-02T08:23:25;95173.59;;;6.27;100.00
5913;BME280;2982;42.684;23.356;2023-03-02T08:25:52;95190.25;;;6.33;100.00
5913;BME280;2982;42.684;23.356;2023-03-02T08:28:18;95178.25;;;6.39;100.00
5913;BME280;2982;42.684;23.356;2023-03-02T08:30:43;95183.50;;;6.58;100.00
5913;BME280;2982;42.684;23.356;2023-03-02T08:33:08;95187.91;;;6.78;100.00
5913;BME280;2982;42.684;23.356;2023-03-02T08:35:34;95191.56;;;6.69;100.00
5913;BME280;2982;42.684;23.356;2023-03-02T08:37:59;95182.19;;;6.73;100.00
5913;BME280;2982;42.684;23.356;2023-03-02T08:40:25;95198.16;;;6.73;100.00
5913;BME280;2982;42.684;23.356;2023-03-02T08:42:50;95187.38;;;6.68;100.00
5913;BME280;2982;42.684;23.356;2023-03-02T08:45:15;95191.38;;;6.75;100.00
5913;BME280;2982;42.684;23.356;2023-03-02T08:47:41;95191.00;;;6.86;100.00
5913;BME280;2982;42.684;23.356;2023-03-02T08:50:06;95187.06;;;6.77;100.00
5913;BME280;2982;42.684;23.356;2023-03-02T08:52:33;95182.41;;;6.67;100.00
5913;BME280;2982;42.684;23.356;2023-03-02T08:54:58;95163.31;;;6.58;100.00
5913;BME280;2982;42.684;23.356;2023-03-02T08:57:23;95182.03;;;6.77;100.00
5913;BME280;2982;42.684;23.356;2023-03-02T08:59:48;95184.03;;;6.92;100.00
5913;BME280;2982;42.684;23.356;2023-03-02T09:02:14;95183.75;;;7.00;100.00
5913;BME280;2982;42.684;23.356;2023-03-02T09:04:39;95170.09;;;7.05;100.00
5913;BME280;2982;42.684;23.356;2023-03-02T09:07:04;95180.78;;;7.14;100.00
5913;BME280;2982;42.684;23.356;2023-03-02T09:09:30;95154.06;;;7.06;100.00
5913;BME280;2982;42.684;23.356;2023-03-02T09:11:55;95157.75;;;7.21;100.00
5913;BME280;2982;42.684;23.356;2023-03-02T09:14:20;95172.41;;;7.35;100.00
5913;BME280;2982;42.684;23.356;2023-03-02T09:16:46;95158.03;;;7.37;100.00
5913;BME280;2982;42.684;23.356;2023-03-02T09:19:12;95173.78;;;7.20;100.00
5913;BME280;2982;42.684;23.356;2023-03-02T09:21:38;95176.19;;;7.00;100.00
5913;BME280;2982;42.684;23.356;2023-03-02T09:24:03;95120.22;;;6.64;100.00
5913;BME280;2982;42.684;23.356;2023-03-02T09:26:29;95173.81;;;6.95;100.00
5913;BME280;2982;42.684;23.356;2023-03-02T09:28:55;95184.38;;;7.06;100.00
5913;BME280;2982;42.684;23.356;2023-03-02T09:31:20;95182.88;;;7.01;100.00
5913;BME280;2982;42.684;23.356;2023-03-02T09:33:45;95176.66;;;6.86;100.00
5913;BME280;2982;42.684;23.356;2023-03-02T09:36:17;95147.75;;;6.72;100.00
5913;BME280;2982;42.684;23.356;2023-03-02T09:38:42;95170.13;;;6.81;100.00
5913;BME280;2982;42.684;23.356;2023-03-02T09:44:03;95169.75;;;7.15;100.00
5913;BME280;2982;42.684;23.356;2023-03-02T09:46:43;95180.09;;;7.08;100.00
5913;BME280;2982;42.684;23.356;2023-03-02T09:52:27;95164.13;;;7.08;100.00
5913;BME280;2982;42.684;23.356;2023-03-02T09:54:53;95156.47;;;7.09;100.00
5913;BME280;2982;42.684;23.356;2023-03-02T09:57:31;95155.34;;;7.18;100.00
5913;BME280;2982;42.684;23.356;2023-03-02T10:00:06;95172.94;;;6.96;100.00
5913;BME280;2982;42.684;23.356;2023-03-02T10:02:36;95159.09;;;6.83;100.00
5913;BME280;2982;42.684;23.356;2023-03-02T10:05:06;95159.31;;;7.00;100.00
5913;BME280;2982;42.684;23.356;2023-03-02T10:07:38;95167.63;;;7.04;100.00
5913;BME280;2982;42.684;23.356;2023-03-02T10:15:40;95174.81;;;7.15;100.00
5913;BME280;2982;42.684;23.356;2023-03-02T10:18:24;95177.19;;;7.19;100.00
5913;BME280;2982;42.684;23.356;2023-03-02T10:20:59;95152.09;;;7.15;100.00
5913;BME280;2982;42.684;23.356;2023-03-02T10:23:38;95158.63;;;6.97;100.00
5913;BME280;2982;42.684;23.356;2023-03-02T10:26:17;95174.38;;;7.03;100.00
5913;BME280;2982;42.684;23.356;2023-03-02T10:28:47;95169.00;;;6.89;100.00
5913;BME280;2982;42.684;23.356;2023-03-02T10:31:31;95174.22;;;7.08;100.00
5913;BME280;2982;42.684;23.356;2023-03-02T10:33:57;95162.63;;;7.02;100.00
5913;BME280;2982;42.684;23.356;2023-03-02T10:36:23;95167.06;;;6.96;100.00
5913;BME280;2982;42.684;23.356;2023-03-02T10:38:50;95154.59;;;6.91;100.00
5913;BME280;2982;42.684;23.356;2023-03-02T10:41:34;95154.13;;;7.05;100.00
5913;BME280;2982;42.684;23.356;2023-03-02T10:44:25;95154.72;;;6.88;100.00
5913;BME280;2982;42.684;23.356;2023-03-02T10:46:52;95152.41;;;6.82;100.00
5913;BME280;2982;42.684;23.356;2023-03-02T10:49:24;95154.34;;;6.99;100.00
5913;BME280;2982;42.684;23.356;2023-03-02T10:52:03;95157.69;;;6.99;100.00
5913;BME280;2982;42.684;23.356;2023-03-02T10:54:31;95151.81;;;6.99;100.00
5913;BME280;2982;42.684;23.356;2023-03-02T10:56:59;95154.66;;;6.90;100.00
5913;BME280;2982;42.684;23.356;2023-03-02T11:02:01;95149.00;;;7.06;100.00
5913;BME280;2982;42.684;23.356;2023-03-02T11:04:30;95136.75;;;7.19;100.00
5913;BME280;2982;42.684;23.356;2023-03-02T11:07:09;95135.56;;;7.29;100.00
5913;BME280;2982;42.684;23.356;2023-03-02T11:09:38;95127.31;;;7.24;100.00
5913;BME280;2982;42.684;23.356;2023-03-02T11:12:03;95138.53;;;7.62;100.00
5913;BME280;2982;42.684;23.356;2023-03-02T11:14:29;95131.84;;;7.83;100.00
5913;BME280;2982;42.684;23.356;2023-03-02T11:16:55;95129.41;;;7.58;100.00
5913;BME280;2982;42.684;23.356;2023-03-02T11:19:34;95126.94;;;7.57;100.00
5913;BME280;2982;42.684;23.356;2023-03-02T11:24:51;95048.00;;;7.06;100.00
5913;BME280;2982;42.684;23.356;2023-03-02T11:27:24;95118.13;;;7.45;100.00
5913;BME280;2982;42.684;23.356;2023-03-02T11:30:15;95118.66;;;7.53;100.00
5913;BME280;2982;42.684;23.356;2023-03-02T11:32:53;95114.38;;;7.77;100.00
5913;BME280;2982;42.684;23.356;2023-03-02T11:35:35;95110.19;;;7.76;100.00
5913;BME280;2982;42.684;23.356;2023-03-02T11:40:44;95104.59;;;7.68;100.00
5913;BME280;2982;42.684;23.356;2023-03-02T11:43:11;95091.31;;;7.41;100.00
5913;BME280;2982;42.684;23.356;2023-03-02T11:45:45;95092.16;;;7.63;100.00
5913;BME280;2982;42.684;23.356;2023-03-02T11:53:43;95106.38;;;8.08;100.00
5913;BME280;2982;42.684;23.356;2023-03-02T11:56:10;95108.81;;;8.11;100.00
5913;BME280;2982;42.684;23.356;2023-03-02T11:58:36;95104.75;;;8.07;100.00
5913;BME280;2982;42.684;23.356;2023-03-02T12:01:03;95090.94;;;7.93;100.00
5913;BME280;2982;42.684;23.356;2023-03-02T12:06:05;95106.00;;;7.96;100.00
5913;BME280;2982;42.684;23.356;2023-03-02T12:08:38;95109.34;;;7.75;100.00
5913;BME280;2982;42.684;23.356;2023-03-02T12:11:31;95112.44;;;7.83;100.00
5913;BME280;2982;42.684;23.356;2023-03-02T12:14:00;95090.56;;;7.82;100.00
5913;BME280;2982;42.684;23.356;2023-03-02T12:16:43;95107.56;;;7.79;100.00
5913;BME280;2982;42.684;23.356;2023-03-02T12:22:03;95108.31;;;7.81;100.00
5913;BME280;2982;42.684;23.356;2023-03-02T12:24:29;95094.53;;;7.66;100.00
5913;BME280;2982;42.684;23.356;2023-03-02T12:29:49;95071.56;;;7.72;100.00
5913;BME280;2982;42.684;23.356;2023-03-02T12:48:34;95102.75;;;7.51;100.00
5913;BME280;2982;42.684;23.356;2023-03-02T12:51:04;95099.91;;;7.59;100.00
5913;BME280;2982;42.684;23.356;2023-03-02T12:53:36;95094.03;;;7.58;100.00
5913;BME280;2982;42.684;23.356;2023-03-02T12:56:01;95088.50;;;7.48;100.00
5913;BME280;2982;42.684;23.356;2023-03-02T12:58:28;95090.38;;;7.65;100.00
5913;BME280;2982;42.684;23.356;2023-03-02T13:00:56;95078.53;;;7.87;100.00
5913;BME280;2982;42.684;23.356;2023-03-02T13:03:22;95083.19;;;8.18;100.00
5913;BME280;2982;42.684;23.356;2023-03-02T13:05:47;95073.63;;;8.25;100.00
5913;BME280;2982;42.684;23.356;2023-03-02T13:08:26;95080.06;;;8.54;100.00
5913;BME280;2982;42.684;23.356;2023-03-02T13:10:54;95083.06;;;8.42;100.00
5913;BME280;2982;42.684;23.356;2023-03-02T13:13:25;95080.88;;;8.34;100.00
5913;BME280;2982;42.684;23.356;2023-03-02T13:18:22;95076.66;;;7.92;100.00
5913;BME280;2982;42.684;23.356;2023-03-02T13:20:49;95067.41;;;7.91;100.00
5913;BME280;2982;42.684;23.356;2023-03-02T13:23:15;95064.25;;;7.86;100.00
5913;BME280;2982;42.684;23.356;2023-03-02T13:28:36;95066.72;;;8.08;100.00
5913;BME280;2982;42.684;23.356;2023-03-02T13:31:22;95062.31;;;7.93;100.00
5913;BME280;2982;42.684;23.356;2023-03-02T13:33:49;95062.13;;;7.76;100.00
5913;BME280;2982;42.684;23.356;2023-03-02T13:36:18;95052.66;;;7.81;100.00
5913;BME280;2982;42.684;23.356;2023-03-02T13:38:47;95049.75;;;7.70;100.00
5913;BME280;2982;42.684;23.356;2023-03-02T13:41:31;95053.13;;;7.48;100.00
5913;BME280;2982;42.684;23.356;2023-03-02T13:43:58;95042.09;;;7.51;100.00
5913;BME280;2982;42.684;23.356;2023-03-02T13:46:30;95047.38;;;7.45;100.00
5913;BME280;2982;42.684;23.356;2023-03-02T13:49:02;95053.41;;;7.41;100.00
5913;BME280;2982;42.684;23.356;2023-03-02T13:51:48;95051.28;;;7.52;100.00
5913;BME280;2982;42.684;23.356;2023-03-02T13:54:27;95031.72;;;7.35;100.00
5913;BME280;2982;42.684;23.356;2023-03-02T13:56:55;95041.78;;;7.37;100.00
5913;BME280;2982;42.684;23.356;2023-03-02T13:59:22;95037.25;;;7.45;100.00
5913;BME280;2982;42.684;23.356;2023-03-02T14:01:48;95036.25;;;7.49;100.00
5913;BME280;2982;42.684;23.356;2023-03-02T14:04:17;95032.84;;;7.70;100.00
5913;BME280;2982;42.684;23.356;2023-03-02T14:06:46;95039.66;;;8.10;100.00
5913;BME280;2982;42.684;23.356;2023-03-02T14:09:12;95029.44;;;8.33;100.00